createdAt,value
2024-03-05T00:01:35.495Z,129.63
2024-03-05T00:04:02.713Z,130.82
2024-03-05T00:06:30.871Z,119.32
2024-03-05T00:08:57.966Z,129.70
2024-03-05T00:11:25.118Z,138.57
2024-03-05T00:13:53.747Z,118.45
2024-03-05T00:16:20.777Z,122.00
2024-03-05T00:18:47.756Z,130.45
2024-03-05T00:21:14.825Z,123.80
2024-03-05T00:23:41.804Z,123.13
2024-03-05T00:26:09.435Z,134.07
2024-03-05T00:28:36.464Z,138.73
2024-03-05T00:31:04.219Z,138.38
2024-03-05T00:33:31.169Z,135.48
2024-03-05T00:35:58.118Z,144.23
2024-03-05T00:38:32.948Z,150.60
2024-03-05T00:41:01.756Z,144.63
2024-03-05T00:43:28.805Z,161.48
2024-03-05T00:45:55.746Z,146.57
2024-03-05T00:48:22.856Z,177.57
2024-03-05T00:50:49.808Z,180.00
2024-03-05T00:53:16.838Z,188.38
2024-03-05T00:55:43.834Z,197.13
2024-03-05T00:58:11.277Z,184.75
2024-03-05T01:00:38.366Z,185.98
2024-03-05T01:03:05.971Z,175.40
2024-03-05T01:05:32.890Z,197.75
2024-03-05T01:08:00.186Z,215.00
2024-03-05T01:10:27.325Z,197.57
2024-03-05T01:12:54.492Z,197.48
2024-03-05T01:15:21.803Z,182.38
2024-03-05T01:17:48.826Z,179.05
2024-03-05T01:20:19.535Z,220.23
2024-03-05T01:22:48.263Z,219.75
2024-03-05T01:25:15.541Z,218.57
2024-03-05T01:27:42.608Z,227.82
2024-03-05T01:30:14.872Z,215.40
2024-03-05T01:32:42.616Z,210.77
2024-03-05T01:35:11.707Z,216.40
2024-03-05T01:37:39.225Z,237.45
2024-03-05T01:40:07.324Z,226.40
2024-03-05T01:42:34.640Z,222.88
2024-03-05T01:45:01.642Z,207.82
2024-03-05T01:47:29.674Z,206.63
2024-03-05T01:49:57.240Z,219.43
2024-03-05T01:52:24.790Z,213.80
2024-03-05T01:54:55.410Z,227.25
2024-03-05T01:57:25.655Z,226.63
2024-03-05T01:59:52.713Z,233.68
2024-03-05T02:02:19.649Z,210.85
2024-03-05T02:04:47.110Z,199.27
2024-03-05T02:07:14.342Z,200.10
2024-03-05T02:09:42.487Z,209.32
2024-03-05T02:12:09.599Z,210.75
2024-03-05T02:14:36.822Z,214.25
2024-03-05T02:17:03.956Z,216.18
2024-03-05T02:19:31.086Z,215.57
2024-03-05T02:22:05.180Z,234.15
2024-03-05T02:24:35.260Z,240.55
2024-03-05T02:27:03.781Z,245.77
2024-03-05T02:29:32.552Z,229.85
2024-03-05T02:31:59.812Z,239.85
2024-03-05T02:34:27.356Z,249.23
2024-03-05T02:36:54.366Z,259.38
2024-03-05T02:39:21.418Z,272.63
2024-03-05T02:41:48.368Z,295.23
2024-03-05T02:44:15.451Z,261.50
2024-03-05T02:46:42.408Z,282.58
2024-03-05T02:49:10.100Z,295.98
2024-03-05T02:51:37.172Z,295.67
2024-03-05T02:54:04.371Z,307.52
2024-03-05T02:56:31.530Z,404.08
2024-03-05T02:58:58.465Z,340.98
2024-03-05T03:01:25.716Z,393.08
2024-03-05T03:03:52.744Z,432.65
2024-03-05T03:06:20.383Z,377.63
2024-03-05T03:08:47.336Z,323.27
2024-03-05T03:11:18.699Z,477.58
2024-03-05T03:13:49.695Z,312.92
2024-03-05T03:16:16.836Z,323.27
2024-03-05T03:18:43.900Z,360.52
2024-03-05T03:21:11.024Z,327.38
2024-03-05T03:23:37.967Z,374.17
2024-03-05T03:26:06.058Z,334.38
2024-03-05T03:28:34.045Z,482.70
2024-03-05T03:31:01.713Z,319.73
2024-03-05T03:33:28.715Z,395.00
2024-03-05T03:35:56.996Z,325.55
2024-03-05T03:38:24.925Z,351.45
2024-03-05T03:40:54.059Z,334.35
2024-03-05T03:43:21.315Z,307.50
2024-03-05T03:45:49.248Z,288.85
2024-03-05T03:48:16.506Z,302.27
2024-03-05T03:50:45.207Z,300.10
2024-03-05T03:53:14.411Z,321.50
2024-03-05T03:55:41.524Z,303.77
2024-03-05T03:58:08.488Z,299.58
2024-03-05T04:00:37.926Z,321.98
2024-03-05T04:03:07.383Z,288.65
2024-03-05T04:05:34.849Z,298.65
2024-03-05T04:08:05.563Z,268.98
2024-03-05T04:10:32.934Z,277.13
2024-03-05T04:13:00.011Z,283.75
2024-03-05T04:15:26.922Z,290.77
2024-03-05T04:17:54.005Z,262.15
2024-03-05T04:20:21.494Z,291.77
2024-03-05T04:22:48.752Z,252.63
2024-03-05T04:25:15.978Z,265.83
2024-03-05T04:27:47.161Z,270.73
2024-03-05T04:30:15.775Z,246.00
2024-03-05T04:32:58.462Z,261.65
2024-03-05T04:37:57.374Z,294.00
2024-03-05T04:40:24.687Z,265.88
2024-03-05T04:42:51.878Z,269.83
2024-03-05T04:45:19.287Z,270.73
2024-03-05T04:47:46.540Z,265.05
2024-03-05T04:50:15.815Z,260.20
2024-03-05T04:52:44.018Z,251.43
2024-03-05T04:55:11.544Z,252.25
2024-03-05T04:57:38.591Z,239.55
2024-03-05T05:00:21.017Z,232.35
2024-03-05T05:02:49.215Z,259.17
2024-03-05T05:05:19.737Z,217.98
2024-03-05T05:07:47.944Z,227.95
2024-03-05T05:10:15.822Z,226.63
2024-03-05T05:12:45.069Z,266.90
2024-03-05T05:15:13.359Z,260.55
2024-03-05T05:17:40.734Z,232.20
2024-03-05T05:20:11.945Z,241.77
2024-03-05T05:22:39.301Z,254.32
2024-03-05T05:25:09.517Z,242.77
2024-03-05T05:27:36.994Z,257.55
2024-03-05T05:30:09.627Z,260.52
2024-03-05T05:32:41.180Z,256.10
2024-03-05T05:35:11.598Z,262.08
2024-03-05T05:37:38.923Z,253.57
2024-03-05T05:40:11.986Z,264.55
2024-03-05T05:42:39.637Z,304.53
2024-03-05T05:45:10.135Z,253.07
2024-03-05T05:47:59.046Z,300.30
2024-03-05T05:50:32.713Z,250.45
2024-03-05T05:53:02.806Z,270.17
2024-03-05T05:55:30.224Z,249.02
2024-03-05T05:57:58.361Z,219.32
2024-03-05T06:00:35.053Z,216.98
2024-03-05T06:03:05.601Z,173.82
2024-03-05T06:05:33.600Z,183.35
2024-03-05T06:08:01.931Z,181.45
2024-03-05T06:10:30.977Z,182.48
2024-03-05T06:12:59.780Z,165.25
2024-03-05T06:15:29.673Z,164.32
2024-03-05T06:18:01.256Z,154.30
2024-03-05T06:20:29.406Z,144.43
2024-03-05T06:23:00.477Z,143.18
2024-03-05T06:25:30.414Z,138.63
2024-03-05T06:27:57.889Z,150.32
2024-03-05T06:30:26.291Z,144.48
2024-03-05T06:32:53.870Z,115.15
2024-03-05T06:35:25.337Z,123.35
2024-03-05T06:37:54.854Z,107.82
2024-03-05T06:40:24.548Z,106.65
2024-03-05T06:43:05.488Z,106.93
2024-03-05T06:45:35.925Z,114.15
2024-03-05T06:48:16.064Z,119.55
2024-03-05T06:50:45.011Z,96.28
2024-03-05T06:53:31.593Z,108.28
2024-03-05T06:56:17.389Z,111.20
2024-03-05T06:58:47.174Z,110.78
2024-03-05T07:01:21.656Z,101.40
2024-03-05T07:03:49.783Z,116.38
2024-03-05T07:06:20.772Z,106.85
2024-03-05T07:08:49.958Z,88.63
2024-03-05T07:11:17.751Z,97.43
2024-03-05T07:13:48.828Z,89.28
2024-03-05T07:16:18.976Z,90.90
2024-03-05T07:18:51.460Z,91.32
2024-03-05T07:21:21.689Z,90.53
2024-03-05T07:23:55.052Z,109.70
2024-03-05T07:26:27.733Z,96.95
2024-03-05T07:28:55.604Z,94.80
2024-03-05T07:31:25.358Z,96.78
2024-03-05T07:33:53.851Z,90.85
2024-03-05T07:36:22.069Z,89.57
2024-03-05T07:38:49.689Z,116.35
2024-03-05T07:41:26.654Z,118.00
2024-03-05T07:44:05.124Z,100.00
2024-03-05T07:46:37.590Z,127.80
2024-03-05T07:49:06.138Z,130.45
2024-03-05T07:51:41.251Z,121.82
2024-03-05T07:54:12.533Z,125.00
2024-03-05T07:56:39.785Z,117.95
2024-03-05T07:59:07.167Z,99.03
2024-03-05T08:01:34.850Z,99.35
2024-03-05T08:04:02.360Z,106.60
2024-03-05T08:06:31.774Z,101.47
2024-03-05T08:08:58.855Z,97.30
2024-03-05T08:11:25.895Z,116.80
2024-03-05T08:13:52.927Z,94.55
2024-03-05T08:16:19.894Z,120.82
2024-03-05T08:18:47.711Z,91.15
2024-03-05T08:21:14.828Z,121.13
2024-03-05T08:23:42.032Z,113.05
2024-03-05T08:26:10.526Z,126.57
2024-03-05T08:28:56.614Z,125.07
2024-03-05T08:31:23.641Z,114.57
2024-03-05T08:33:51.154Z,119.10
2024-03-05T08:36:18.968Z,116.78
2024-03-05T08:38:46.982Z,138.88
2024-03-05T08:41:14.003Z,133.20
2024-03-05T08:43:41.716Z,138.35
2024-03-05T08:46:09.669Z,129.65
2024-03-05T08:48:37.370Z,139.45
2024-03-05T08:51:04.857Z,121.60
2024-03-05T08:53:31.971Z,126.35
2024-03-05T08:55:58.997Z,116.63
2024-03-05T08:58:26.125Z,106.75
2024-03-05T09:00:54.418Z,153.45
2024-03-05T09:03:22.536Z,111.32
2024-03-05T09:05:49.546Z,115.90
2024-03-05T09:08:16.694Z,122.63
2024-03-05T09:10:45.942Z,136.77
2024-03-05T09:13:13.235Z,102.63
2024-03-05T09:15:43.729Z,119.95
2024-03-05T09:18:15.947Z,125.47
2024-03-05T09:20:44.181Z,101.32
2024-03-05T09:23:11.624Z,108.72
2024-03-05T09:25:43.345Z,104.10
2024-03-05T09:28:11.894Z,97.10
2024-03-05T09:30:39.359Z,104.97
2024-03-05T09:33:11.536Z,117.80
2024-03-05T09:35:40.484Z,101.05
2024-03-05T09:38:08.573Z,107.95
2024-03-05T09:40:36.392Z,97.78
2024-03-05T09:43:05.751Z,99.00
2024-03-05T09:45:38.223Z,102.05
2024-03-05T09:48:08.270Z,81.47
2024-03-05T09:50:40.566Z,111.68
2024-03-05T09:53:10.239Z,105.18
2024-03-05T09:55:49.129Z,108.03
2024-03-05T09:58:19.948Z,95.80
2024-03-05T10:00:48.466Z,83.60
2024-03-05T10:03:15.530Z,82.28
2024-03-05T10:05:42.668Z,90.32
2024-03-05T10:08:12.644Z,85.93
2024-03-05T10:10:39.891Z,83.05
2024-03-05T10:13:07.755Z,69.75
2024-03-05T10:15:38.564Z,61.90
2024-03-05T10:18:08.960Z,70.28
2024-03-05T10:20:40.171Z,50.92
2024-03-05T10:23:10.738Z,66.60
2024-03-05T10:25:41.657Z,46.10
2024-03-05T10:28:12.761Z,48.58
2024-03-05T10:30:43.976Z,53.47
2024-03-05T10:33:11.819Z,48.67
2024-03-05T10:35:40.337Z,52.83
2024-03-05T10:38:15.796Z,50.70
2024-03-05T10:40:46.687Z,43.72
2024-03-05T10:43:18.047Z,49.60
2024-03-05T10:45:48.668Z,38.95
2024-03-05T10:48:19.768Z,41.95
2024-03-05T10:50:50.466Z,41.92
2024-03-05T10:53:19.030Z,38.45
2024-03-05T10:55:48.730Z,35.53
2024-03-05T10:58:19.123Z,39.72
2024-03-05T11:00:49.362Z,43.25
2024-03-05T11:03:21.547Z,36.13
2024-03-05T11:05:53.695Z,32.55
2024-03-05T11:08:26.023Z,38.00
2024-03-05T11:11:07.510Z,41.95
2024-03-05T11:13:40.046Z,40.55
2024-03-05T11:16:14.508Z,38.17
2024-03-05T11:19:00.002Z,41.90
2024-03-05T11:21:26.978Z,44.13
2024-03-05T11:23:54.160Z,50.35
2024-03-05T11:26:24.325Z,47.25
2024-03-05T11:29:03.769Z,45.28
2024-03-05T11:31:31.143Z,52.28
2024-03-05T11:34:04.273Z,53.88
2024-03-05T11:36:35.866Z,53.63
2024-03-05T11:39:08.909Z,53.05
2024-03-05T11:41:39.426Z,64.38
2024-03-05T11:44:06.766Z,46.83
2024-03-05T11:46:46.892Z,52.63
2024-03-05T11:49:17.650Z,48.13
2024-03-05T11:51:47.224Z,48.65
2024-03-05T11:54:18.781Z,52.20
2024-03-05T11:56:56.155Z,47.20
2024-03-05T11:59:38.955Z,52.05
2024-03-05T12:02:16.193Z,42.38
2024-03-05T12:04:50.029Z,46.70
2024-03-05T12:07:17.765Z,42.53
2024-03-05T12:09:45.286Z,42.95
2024-03-05T12:12:14.179Z,46.13
2024-03-05T12:14:57.202Z,43.08
2024-03-05T12:17:26.209Z,39.20
2024-03-05T12:20:04.935Z,38.08
2024-03-05T12:22:33.136Z,39.13
2024-03-05T12:25:02.092Z,46.83
2024-03-05T12:27:29.637Z,38.33
2024-03-05T12:30:02.741Z,40.20
2024-03-05T12:32:30.333Z,34.35
2024-03-05T12:35:03.220Z,33.40
2024-03-05T12:37:32.872Z,37.70
2024-03-05T12:40:00.988Z,35.13
2024-03-05T12:42:29.866Z,40.65
2024-03-05T12:45:09.990Z,47.25
2024-03-05T12:47:39.909Z,37.05
2024-03-05T12:50:11.463Z,37.45
2024-03-05T12:52:39.186Z,39.00
2024-03-05T12:55:11.721Z,43.83
2024-03-05T12:57:39.100Z,37.95
2024-03-05T13:00:14.129Z,41.70
2024-03-05T13:02:43.431Z,36.05
2024-03-05T13:05:11.281Z,36.70
2024-03-05T13:07:39.720Z,35.35
2024-03-05T13:10:13.443Z,32.33
2024-03-05T13:12:43.221Z,31.70
2024-03-05T13:15:10.793Z,32.92
2024-03-05T13:17:38.006Z,29.20
2024-03-05T13:20:05.883Z,31.27
2024-03-05T13:22:33.268Z,40.92
2024-03-05T13:25:01.083Z,24.13
2024-03-05T13:27:28.181Z,29.77
2024-03-05T13:30:05.561Z,30.92
2024-03-05T13:32:39.779Z,36.63
2024-03-05T13:35:09.280Z,28.00
2024-03-05T13:37:39.354Z,29.65
2024-03-05T13:40:07.821Z,28.45
2024-03-05T13:42:37.051Z,23.13
2024-03-05T13:45:13.392Z,26.85
2024-03-05T13:47:44.379Z,30.92
2024-03-05T13:50:14.063Z,26.77
2024-03-05T13:52:43.708Z,25.17
2024-03-05T13:55:12.928Z,27.75
2024-03-05T13:57:41.182Z,29.73
2024-03-05T14:00:10.147Z,30.73
2024-03-05T14:02:37.275Z,30.30
2024-03-05T14:05:04.828Z,29.10
2024-03-05T14:07:32.371Z,30.98
2024-03-05T14:10:00.877Z,35.72
2024-03-05T14:12:30.888Z,35.75
2024-03-05T14:15:05.229Z,37.38
2024-03-05T14:17:32.176Z,33.95
2024-03-05T14:19:59.137Z,36.45
2024-03-05T14:22:26.157Z,40.88
2024-03-05T14:24:53.936Z,39.75
2024-03-05T14:27:20.907Z,35.28
2024-03-05T14:29:47.856Z,33.70
2024-03-05T14:32:14.807Z,38.35
2024-03-05T14:34:41.779Z,43.28
2024-03-05T14:39:49.468Z,37.70
2024-03-05T14:42:18.209Z,38.67
2024-03-05T14:44:47.320Z,40.17
2024-03-05T14:47:14.467Z,39.08
2024-03-05T14:49:41.472Z,33.92
2024-03-05T14:52:08.388Z,37.05
2024-03-05T14:54:35.614Z,37.40
2024-03-05T14:57:02.552Z,41.00
2024-03-05T14:59:30.204Z,44.08
2024-03-05T15:02:00.771Z,58.35
2024-03-05T15:04:27.876Z,44.15
2024-03-05T15:06:57.366Z,36.58
2024-03-05T15:09:24.346Z,51.30
2024-03-05T15:11:51.561Z,34.88
2024-03-05T15:16:47.800Z,37.60
2024-03-05T15:19:16.215Z,37.95
2024-03-05T15:21:43.366Z,39.47
2024-03-05T15:26:58.504Z,54.22
2024-03-05T15:29:32.520Z,53.55
2024-03-05T15:32:01.330Z,41.80
2024-03-05T15:34:28.770Z,50.58
2024-03-05T15:36:56.016Z,50.60
2024-03-05T15:39:23.316Z,45.53
2024-03-05T15:41:50.297Z,48.10
2024-03-05T15:44:20.520Z,48.33
2024-03-05T15:46:48.772Z,44.42
2024-03-05T15:49:15.765Z,52.47
2024-03-05T15:51:43.737Z,51.35
2024-03-05T15:54:11.587Z,46.60
2024-03-05T15:56:58.586Z,44.88
2024-03-05T15:59:29.905Z,50.95
2024-03-05T16:01:57.023Z,57.80
2024-03-05T16:04:43.116Z,48.20
2024-03-05T16:07:11.502Z,52.63
2024-03-05T16:09:38.454Z,52.83
2024-03-05T16:12:06.065Z,49.70
2024-03-05T16:14:33.602Z,46.63
2024-03-05T16:17:01.517Z,50.00
2024-03-05T16:19:28.662Z,50.25
2024-03-05T16:21:57.933Z,44.88
2024-03-05T16:27:03.872Z,48.50
2024-03-05T16:29:30.907Z,39.42
2024-03-05T16:31:59.710Z,43.15
2024-03-05T16:34:26.970Z,42.83
2024-03-05T16:50:14.002Z,54.80
2024-03-05T16:52:44.921Z,47.65
2024-03-05T16:55:16.142Z,46.70
2024-03-05T16:57:44.531Z,46.97
2024-03-05T17:00:19.681Z,43.15
2024-03-05T17:02:56.918Z,48.00
2024-03-05T17:05:25.170Z,48.42
2024-03-05T17:07:56.087Z,52.42
2024-03-05T17:10:28.151Z,49.30
2024-03-05T17:12:56.982Z,56.50
2024-03-05T17:15:42.332Z,41.97
2024-03-05T17:18:12.266Z,48.97
2024-03-05T17:20:39.722Z,52.58
2024-03-05T17:23:08.957Z,59.42
2024-03-05T17:25:39.868Z,54.05
2024-03-05T17:28:09.925Z,52.58
2024-03-05T17:30:39.262Z,43.97
2024-03-05T17:33:15.339Z,47.55
2024-03-05T17:35:43.168Z,48.38
2024-03-05T17:38:15.922Z,43.60
2024-03-05T17:40:44.146Z,44.35
2024-03-05T17:43:11.383Z,44.13
2024-03-05T17:45:38.410Z,44.40
2024-03-05T17:48:07.084Z,41.63
2024-03-05T17:53:07.114Z,41.75
2024-03-05T17:55:35.969Z,39.97
2024-03-05T17:58:05.781Z,43.08
2024-03-05T18:00:46.379Z,49.45
2024-03-05T18:03:22.798Z,36.80
2024-03-05T18:05:49.955Z,38.97
2024-03-05T18:08:17.108Z,41.97
2024-03-05T18:10:44.275Z,43.08
2024-03-05T18:13:11.645Z,49.00
2024-03-05T18:15:42.100Z,34.72
2024-03-05T18:18:09.074Z,36.85
2024-03-05T18:20:36.845Z,35.40
2024-03-05T18:23:06.338Z,43.00
2024-03-05T18:25:37.692Z,36.78
2024-03-05T18:28:06.577Z,34.35
2024-03-05T18:30:39.262Z,36.05
2024-03-05T18:33:10.027Z,45.25
2024-03-05T18:35:40.694Z,34.22
2024-03-05T18:38:20.461Z,39.05
2024-03-05T18:40:58.092Z,32.22
2024-03-05T18:43:26.101Z,28.23
2024-03-05T18:45:53.474Z,30.73
2024-03-05T18:48:24.053Z,32.15
2024-03-05T18:50:52.701Z,29.15
2024-03-05T18:55:59.320Z,24.17
2024-03-05T18:58:26.320Z,44.38
2024-03-05T19:00:54.184Z,36.63
2024-03-05T19:03:21.320Z,28.55
2024-03-05T19:05:49.034Z,30.30
2024-03-05T19:08:20.396Z,33.28
2024-03-05T19:10:47.597Z,30.88
2024-03-05T19:13:14.618Z,35.00
2024-03-05T19:15:41.653Z,27.83
2024-03-05T19:18:09.602Z,27.63
2024-03-05T19:20:36.878Z,30.75
2024-03-05T19:23:05.616Z,29.15
2024-03-05T19:25:32.920Z,26.23
2024-03-05T19:30:42.338Z,20.30
2024-03-05T19:33:09.696Z,26.27
2024-03-05T19:35:38.704Z,21.48
2024-03-05T19:38:06.384Z,34.75
2024-03-05T19:40:33.543Z,26.98
2024-03-05T19:45:30.593Z,31.60
2024-03-05T19:47:58.932Z,27.23
2024-03-05T19:50:27.464Z,20.25
2024-03-05T19:52:56.432Z,26.98
2024-03-05T19:58:03.748Z,26.08
2024-03-05T20:00:31.099Z,22.95
2024-03-05T20:02:58.223Z,22.35
2024-03-05T20:05:28.172Z,19.05
2024-03-05T20:07:55.245Z,24.75
2024-03-05T20:10:22.649Z,33.17
2024-03-05T20:12:49.791Z,24.33
2024-03-05T20:15:16.790Z,27.73
2024-03-05T20:17:44.520Z,26.42
2024-03-05T20:20:17.247Z,23.50
2024-03-05T20:22:49.100Z,31.88
2024-03-05T20:25:22.612Z,32.97
2024-03-05T20:30:19.525Z,28.40
2024-03-05T20:32:46.904Z,33.03
2024-03-05T20:35:19.692Z,25.00
2024-03-05T20:37:47.971Z,33.15
2024-03-05T20:40:15.753Z,26.05
2024-03-05T20:42:44.212Z,31.73
2024-03-05T20:45:13.076Z,30.02
2024-03-05T20:47:41.274Z,32.47
2024-03-05T20:50:12.975Z,21.52
2024-03-05T20:52:40.420Z,24.35
2024-03-05T20:55:09.931Z,22.45
2024-03-05T20:57:38.783Z,41.28
2024-03-05T21:00:07.882Z,26.70
2024-03-05T21:02:38.068Z,20.27
2024-03-05T21:05:07.145Z,29.83
2024-03-05T21:07:36.247Z,23.25
2024-03-05T21:10:10.661Z,28.00
2024-03-05T21:12:42.240Z,34.45
2024-03-05T21:15:13.752Z,28.65
2024-03-05T21:17:42.133Z,28.23
2024-03-05T21:20:16.953Z,33.53
2024-03-05T21:22:44.563Z,34.95
2024-03-05T21:25:11.803Z,27.77
2024-03-05T21:27:43.387Z,39.05
2024-03-05T21:30:12.977Z,41.78
2024-03-05T21:32:42.995Z,36.17
2024-03-05T21:35:10.743Z,36.38
2024-03-05T21:37:39.426Z,38.58
2024-03-05T21:40:07.586Z,29.95
2024-03-05T21:42:34.726Z,31.65
2024-03-05T21:45:02.010Z,27.73
2024-03-05T21:47:29.367Z,22.73
2024-03-05T21:52:24.322Z,24.70
2024-03-05T21:54:51.211Z,18.27
2024-03-05T21:57:18.262Z,18.08
2024-03-05T21:59:45.183Z,15.32
2024-03-05T22:04:51.104Z,18.95
2024-03-05T22:07:18.194Z,20.85
2024-03-05T22:09:45.084Z,22.00
2024-03-05T22:12:12.132Z,16.00
2024-03-05T22:14:39.276Z,19.80
2024-03-05T22:17:10.081Z,18.73
2024-03-05T22:19:37.694Z,22.42
2024-03-05T22:22:04.689Z,20.27
2024-03-05T22:27:14.855Z,21.20
2024-03-05T22:29:41.932Z,17.20
2024-03-05T22:32:09.270Z,14.18
2024-03-05T22:34:37.428Z,15.25
2024-03-05T22:37:04.511Z,15.88
2024-03-05T22:39:31.491Z,15.30
2024-03-05T22:42:02.481Z,15.48
2024-03-05T22:44:29.460Z,15.18
2024-03-05T22:46:59.403Z,28.65
2024-03-05T22:49:26.419Z,22.67
2024-03-05T22:51:53.351Z,15.27
2024-03-05T22:54:20.371Z,17.42
2024-03-05T22:56:51.745Z,15.68
2024-03-05T22:59:20.183Z,13.75
2024-03-05T23:01:47.951Z,19.10
2024-03-05T23:06:41.957Z,16.10
2024-03-05T23:09:08.989Z,15.15
2024-03-05T23:11:36.025Z,13.55
2024-03-05T23:14:03.691Z,16.60
2024-03-05T23:16:30.664Z,20.48
2024-03-05T23:18:57.680Z,15.80
2024-03-05T23:21:24.721Z,14.13
2024-03-05T23:23:53.473Z,19.88
2024-03-05T23:26:20.635Z,17.77
2024-03-05T23:28:47.678Z,24.30
2024-03-05T23:31:15.310Z,18.58
2024-03-05T23:33:42.655Z,15.02
2024-03-05T23:36:09.683Z,17.33
2024-03-05T23:38:36.653Z,14.55
2024-03-05T23:41:03.871Z,17.00
2024-03-05T23:43:30.966Z,18.02
2024-03-05T23:45:57.897Z,16.00
2024-03-05T23:48:24.948Z,16.05
2024-03-05T23:50:51.926Z,17.95
2024-03-05T23:53:19.277Z,20.13
2024-03-05T23:55:46.480Z,16.05
2024-03-05T23:58:15.055Z,15.82
